Time,TemperatureF,DewpointF,PressureIn,WindDirection,WindDirectionDegrees,WindSpeedMPH,WindSpeedGustMPH,Humidity,HourlyPrecipIn,Conditions,Clouds,dailyrainin,SoftwareType,DateUTC
2013-11-04 00:00:00,33.0,-99.9,-100.00,WNW,294,10.0,13.0,-999,-99.99,,,-99.99,,2013-11-04 07:00:00,
2013-11-04 00:22:00,33.0,-99.9,-100.00,WNW,294,10.0,13.0,-999,-99.99,,,-99.99,,2013-11-04 07:22:00,
2013-11-04 00:32:00,33.0,-99.9,-100.00,WNW,294,10.0,13.0,-999,-99.99,,,-99.99,,2013-11-04 07:32:00,
2013-11-04 00:43:00,33.0,-99.9,-100.00,WNW,294,10.0,13.0,-999,-99.99,,,-99.99,,2013-11-04 07:43:00,
2013-11-04 00:52:00,33.0,-99.9,-100.00,WNW,294,10.0,13.0,-999,-99.99,,,-99.99,,2013-11-04 07:52:00,
2013-11-04 01:00:00,33.0,-99.9,-100.00,West,275,13.0,18.0,-999,-99.99,,,-99.99,,2013-11-04 08:00:00,
2013-11-04 01:22:00,33.0,-99.9,-100.00,West,275,13.0,18.0,-999,-99.99,,,-99.99,,2013-11-04 08:22:00,
2013-11-04 01:32:00,33.0,-99.9,-100.00,West,275,13.0,18.0,-999,-99.99,,,-99.99,,2013-11-04 08:32:00,
2013-11-04 01:42:00,33.0,-99.9,-100.00,West,275,13.0,18.0,-999,-99.99,,,-99.99,,2013-11-04 08:42:00,
2013-11-04 01:52:00,33.0,-99.9,-100.00,West,275,13.0,18.0,-999,-99.99,,,-99.99,,2013-11-04 08:52:00,
2013-11-04 02:00:00,31.0,-99.9,-100.00,WSW,242,10.0,15.0,-999,-99.99,,,-99.99,,2013-11-04 09:00:00,
2013-11-04 02:22:00,31.0,-99.9,-100.00,WSW,242,10.0,15.0,-999,-99.99,,,-99.99,,2013-11-04 09:22:00,
2013-11-04 02:33:00,31.0,-99.9,-100.00,WSW,242,10.0,15.0,-999,-99.99,,,-99.99,,2013-11-04 09:33:00,
2013-11-04 02:43:00,31.0,-99.9,-100.00,WSW,242,10.0,15.0,-999,-99.99,,,-99.99,,2013-11-04 09:43:00,
2013-11-04 02:53:00,31.0,-99.9,-100.00,WSW,242,10.0,15.0,-999,-99.99,,,-99.99,,2013-11-04 09:53:00,
2013-11-04 03:00:00,31.0,-99.9,-100.00,WSW,256,12.0,14.0,-999,-99.99,,,-99.99,,2013-11-04 10:00:00,
2013-11-04 03:43:00,31.0,-99.9,-100.00,WSW,256,12.0,14.0,-999,-99.99,,,-99.99,,2013-11-04 10:43:00,
2013-11-04 03:52:00,31.0,-99.9,-100.00,WSW,256,12.0,14.0,-999,-99.99,,,-99.99,,2013-11-04 10:52:00,
2013-11-04 04:00:00,26.0,-99.9,-100.00,North,8,2.0,6.0,-999,-99.99,,,-99.99,,2013-11-04 11:00:00,
2013-11-04 04:43:00,26.0,-99.9,-100.00,North,8,2.0,6.0,-999,-99.99,,,-99.99,,2013-11-04 11:43:00,
2013-11-04 04:52:00,26.0,-99.9,-100.00,North,8,2.0,6.0,-999,-99.99,,,-99.99,,2013-11-04 11:52:00,
2013-11-04 05:00:00,26.0,-99.9,-100.00,NNE,24,4.0,5.0,-999,-99.99,,,-99.99,,2013-11-04 12:00:00,
2013-11-04 05:42:00,26.0,-99.9,-100.00,NNE,24,4.0,5.0,-999,-99.99,,,-99.99,,2013-11-04 12:42:00,
2013-11-04 05:52:00,26.0,-99.9,-100.00,NNE,24,4.0,5.0,-999,-99.99,,,-99.99,,2013-11-04 12:52:00,
2013-11-04 06:00:00,30.0,-99.9,-100.00,West,278,10.0,15.0,-999,-99.99,,,-99.99,,2013-11-04 13:00:00,
2013-11-04 06:42:00,30.0,-99.9,-100.00,West,278,10.0,15.0,-999,-99.99,,,-99.99,,2013-11-04 13:42:00,
2013-11-04 06:52:00,30.0,-99.9,-100.00,West,278,10.0,15.0,-999,-99.99,,,-99.99,,2013-11-04 13:52:00,
2013-11-04 07:00:00,31.0,-99.9,-100.00,WSW,258,11.0,14.0,-999,-99.99,,,-99.99,,2013-11-04 14:00:00,
2013-11-04 07:42:00,31.0,-99.9,-100.00,WSW,258,11.0,14.0,-999,-99.99,,,-99.99,,2013-11-04 14:42:00,
2013-11-04 07:52:00,31.0,-99.9,-100.00,WSW,258,11.0,14.0,-999,-99.99,,,-99.99,,2013-11-04 14:52:00,
2013-11-04 08:00:00,28.0,-99.9,-100.00,NW,312,1.0,4.0,-999,-99.99,,,-99.99,,2013-11-04 15:00:00,
2013-11-04 08:42:00,28.0,-99.9,-100.00,NW,312,1.0,4.0,-999,-99.99,,,-99.99,,2013-11-04 15:42:00,
2013-11-04 08:52:00,28.0,-99.9,-100.00,NW,312,1.0,4.0,-999,-99.99,,,-99.99,,2013-11-04 15:52:00,
2013-11-04 10:00:00,32.0,-99.9,-100.00,NE,45,6.0,8.0,-999,-99.99,,,-99.99,,2013-11-04 17:00:00,
2013-11-04 10:42:00,32.0,-99.9,-100.00,NE,45,6.0,8.0,-999,-99.99,,,-99.99,,2013-11-04 17:42:00,
2013-11-04 10:53:00,32.0,-99.9,-100.00,NE,45,6.0,8.0,-999,-99.99,,,-99.99,,2013-11-04 17:53:00,
2013-11-04 11:00:00,35.0,-99.9,-100.00,NE,36,6.0,7.0,-999,-99.99,,,-99.99,,2013-11-04 18:00:00,
2013-11-04 11:42:00,35.0,-99.9,-100.00,NE,36,6.0,7.0,-999,-99.99,,,-99.99,,2013-11-04 18:42:00,
2013-11-04 11:52:00,35.0,-99.9,-100.00,NE,36,6.0,7.0,-999,-99.99,,,-99.99,,2013-11-04 18:52:00,
2013-11-04 12:00:00,37.0,-99.9,-100.00,North,6,5.0,7.0,-999,-99.99,,,-99.99,,2013-11-04 19:00:00,
2013-11-04 12:42:00,37.0,-99.9,-100.00,North,6,5.0,7.0,-999,-99.99,,,-99.99,,2013-11-04 19:42:00,
2013-11-04 12:52:00,37.0,-99.9,-100.00,North,6,5.0,7.0,-999,-99.99,,,-99.99,,2013-11-04 19:52:00,
2013-11-04 13:00:00,36.0,-99.9,-100.00,NNE,33,1.0,2.0,-999,-99.99,,,-99.99,,2013-11-04 20:00:00,
2013-11-04 13:42:00,36.0,-99.9,-100.00,NNE,33,1.0,2.0,-999,-99.99,,,-99.99,,2013-11-04 20:42:00,
2013-11-04 13:53:00,36.0,-99.9,-100.00,NNE,33,1.0,2.0,-999,-99.99,,,-99.99,,2013-11-04 20:53:00,
2013-11-04 14:00:00,35.0,-99.9,-100.00,NNE,29,6.0,7.0,-999,-99.99,,,-99.99,,2013-11-04 21:00:00,
2013-11-04 14:22:00,35.0,-99.9,-100.00,NNE,29,6.0,7.0,-999,-99.99,,,-99.99,,2013-11-04 21:22:00,
2013-11-04 14:34:00,35.0,-99.9,-100.00,NNE,29,6.0,7.0,-999,-99.99,,,-99.99,,2013-11-04 21:34:00,
2013-11-04 14:45:00,35.0,-99.9,-100.00,NNE,29,6.0,7.0,-999,-99.99,,,-99.99,,2013-11-04 21:45:00,
2013-11-04 14:54:00,35.0,-99.9,-100.00,NNE,29,6.0,7.0,-999,-99.99,,,-99.99,,2013-11-04 21:54:00,
2013-11-04 15:00:00,35.0,-99.9,-100.00,East,84,6.0,7.0,-999,-99.99,,,-99.99,,2013-11-04 22:00:00,
2013-11-04 15:23:00,35.0,-99.9,-100.00,East,84,6.0,7.0,-999,-99.99,,,-99.99,,2013-11-04 22:23:00,
2013-11-04 15:33:00,35.0,-99.9,-100.00,East,84,6.0,7.0,-999,-99.99,,,-99.99,,2013-11-04 22:33:00,
2013-11-04 15:43:00,35.0,-99.9,-100.00,East,84,6.0,7.0,-999,-99.99,,,-99.99,,2013-11-04 22:43:00,
2013-11-04 15:53:00,35.0,-99.9,-100.00,East,84,6.0,7.0,-999,-99.99,,,-99.99,,2013-11-04 22:53:00,
2013-11-04 16:00:00,34.0,-99.9,-100.00,NNW,329,2.0,4.0,-999,-99.99,,,-99.99,,2013-11-04 23:00:00,
2013-11-04 16:43:00,34.0,-99.9,-100.00,NNW,329,2.0,4.0,-999,-99.99,,,-99.99,,2013-11-04 23:43:00,
2013-11-04 16:53:00,34.0,-99.9,-100.00,NNW,329,2.0,4.0,-999,-99.99,,,-99.99,,2013-11-04 23:53:00,
2013-11-04 17:00:00,32.0,-99.9,-100.00,NE,52,3.0,4.0,-999,-99.99,,,-99.99,,2013-11-05 00:00:00,
2013-11-04 17:22:00,32.0,-99.9,-100.00,NE,52,3.0,4.0,-999,-99.99,,,-99.99,,2013-11-05 00:22:00,
2013-11-04 17:32:00,32.0,-99.9,-100.00,NE,52,3.0,4.0,-999,-99.99,,,-99.99,,2013-11-05 00:32:00,
2013-11-04 17:42:00,32.0,-99.9,-100.00,NE,52,3.0,4.0,-999,-99.99,,,-99.99,,2013-11-05 00:42:00,
2013-11-04 17:52:00,32.0,-99.9,-100.00,NE,52,3.0,4.0,-999,-99.99,,,-99.99,,2013-11-05 00:52:00,
2013-11-04 18:00:00,28.0,-99.9,-100.00,NE,35,8.0,12.0,-999,-99.99,,,-99.99,,2013-11-05 01:00:00,
2013-11-04 18:42:00,28.0,-99.9,-100.00,NE,35,8.0,12.0,-999,-99.99,,,-99.99,,2013-11-05 01:42:00,
2013-11-04 18:52:00,28.0,-99.9,-100.00,NE,35,8.0,12.0,-999,-99.99,,,-99.99,,2013-11-05 01:52:00,
2013-11-04 19:00:00,27.0,-99.9,-100.00,ENE,60,5.0,6.0,-999,-99.99,,,-99.99,,2013-11-05 02:00:00,
2013-11-04 19:42:00,27.0,-99.9,-100.00,ENE,60,5.0,6.0,-999,-99.99,,,-99.99,,2013-11-05 02:42:00,
2013-11-04 19:52:00,27.0,-99.9,-100.00,ENE,60,5.0,6.0,-999,-99.99,,,-99.99,,2013-11-05 02:52:00,
2013-11-04 20:00:00,24.0,-99.9,-100.00,South,172,3.0,3.0,-999,-99.99,,,-99.99,,2013-11-05 03:00:00,
2013-11-04 20:44:00,24.0,-99.9,-100.00,South,172,3.0,3.0,-999,-99.99,,,-99.99,,2013-11-05 03:44:00,
2013-11-04 20:54:00,24.0,-99.9,-100.00,South,172,3.0,3.0,-999,-99.99,,,-99.99,,2013-11-05 03:54:00,
2013-11-04 21:00:00,24.0,-99.9,-100.00,SW,219,6.0,6.0,-999,-99.99,,,-99.99,,2013-11-05 04:00:00,
2013-11-04 21:44:00,24.0,-99.9,-100.00,SW,219,6.0,6.0,-999,-99.99,,,-99.99,,2013-11-05 04:44:00,
2013-11-04 21:53:00,24.0,-99.9,-100.00,SW,219,6.0,6.0,-999,-99.99,,,-99.99,,2013-11-05 04:53:00,
2013-11-04 22:00:00,22.0,-99.9,-100.00,SSE,159,5.0,5.0,-999,-99.99,,,-99.99,,2013-11-05 05:00:00,
2013-11-04 22:44:00,22.0,-99.9,-100.00,SSE,159,5.0,5.0,-999,-99.99,,,-99.99,,2013-11-05 05:44:00,
2013-11-04 22:54:00,22.0,-99.9,-100.00,SSE,159,5.0,5.0,-999,-99.99,,,-99.99,,2013-11-05 05:54:00,
2013-11-04 23:00:00,23.0,-99.9,-100.00,SW,226,4.0,4.0,-999,-99.99,,,-99.99,,2013-11-05 06:00:00,
2013-11-04 23:42:00,23.0,-99.9,-100.00,SW,226,4.0,4.0,-999,-99.99,,,-99.99,,2013-11-05 06:42:00,
2013-11-04 23:52:00,23.0,-99.9,-100.00,SW,226,4.0,4.0,-999,-99.99,,,-99.99,,2013-11-05 06:52:00,